Time;durP1;ratioP1;P1;durP2;ratioP2;P2;SDS_P1;SDS_P2;PMS_P1;PMS_P2;Temp;Humidity;BMP_temperature;BMP_pressure;BME280_temperature;BME280_humidity;BME280_pressure;Samples;Min_cycle;Max_cycle;Signal;HPM_P1;HPM_P2
2023/09/10 00:00:14;;;;;;;;;;;;;;;;;;6241526;22;19929;-81
2023/09/10 00:02:40;;;;;;;;;;;;;;;;;;6238134;22;19930;-82
2023/09/10 00:05:09;;;;;;;;;;;;;;;;;;6265788;22;19915;-82
2023/09/10 00:07:43;;;;;;;;;;;;;;;;;;6240099;22;20336;-82
2023/09/10 00:10:17;;;;;;;;;;;;;;;;;;6265824;22;19927;-82
2023/09/10 00:12:43;;;;;;;;;;;;;;;;;;6240116;22;19934;-82
2023/09/10 00:15:09;;;;;;;;;;;;;;;;;;6263761;22;19930;-82
2023/09/10 00:17:38;;;;;;;;;;;;;;;;;;6241424;22;19919;-82
2023/09/10 00:20:10;;;;;;;;;;;;;;;;;;6238349;22;19926;-82
2023/09/10 00:22:37;;;;;;;;;;;;;;;;;;6264157;22;19919;-82
2023/09/10 00:25:12;;;;;;;;;;;;;;;;;;6239133;22;19925;-82
2023/09/10 00:27:38;;;;;;;;;;;;;;;;;;6239585;22;19918;-82
2023/09/10 00:30:07;;;;;;;;;;;;;;;;;;6237550;22;19953;-82
2023/09/10 00:35:16;;;;;;;;;;;;;;;;;;6317815;22;20655;-82
2023/09/10 00:40:30;;;;;;;;;;;;;;;;;;6319342;22;19934;-82
2023/09/10 00:42:56;;;;;;;;;;;;;;;;;;6269150;22;19926;-82
2023/09/10 00:45:28;;;;;;;;;;;;;;;;;;6270411;22;19918;-82
2023/09/10 00:47:56;;;;;;;;;;;;;;;;;;6269140;22;19957;-82
2023/09/10 00:50:22;;;;;;;;;;;;;;;;;;6294747;22;19946;-82
2023/09/10 00:52:54;;;;;;;;;;;;;;;;;;6265919;22;19923;-82
2023/09/10 00:55:26;;;;;;;;;;;;;;;;;;6275681;22;19919;-82
2023/09/10 00:58:02;;;;;;;;;;;;;;;;;;6339811;22;19926;-82
2023/09/10 01:00:31;;;;;;;;;;;;;;;;;;6274783;22;19971;-82
2023/09/10 01:09:05;;;;;;;;;;;;;;;;;;6337158;22;20051;-82
2023/09/10 01:11:31;;;;;;;;;;;;;;;;;;6276468;22;19994;-82
2023/09/10 01:13:58;;;;;;;;;;;;;;;;;;6275028;22;19919;-82
2023/09/10 01:16:23;;;;;;;;;;;;;;;;;;6301753;22;19918;-82
2023/09/10 01:21:26;;;;;;;;;;;;;;;;;;6324756;22;20087;-85
2023/09/10 01:27:18;;;;;;;;;;;;;;;;;;;;;
2023/09/10 01:29:54;;;;;;;;;;;;;;;;;;6287144;22;20247;-85
2023/09/10 01:32:26;;;;;;;;;;;;;;;;;;6241405;22;19964;-85
2023/09/10 01:34:55;;;;;;;;;;;;;;;;;;6241204;22;19969;-85
2023/09/10 01:37:21;;;;;;;;;;;;;;;;;;6242381;22;20391;-86
2023/09/10 01:39:56;;;;;;;;;;;;;;;;;;6243947;22;19980;-86
2023/09/10 01:42:41;;;;;;;;;;;;;;;;;;6240583;23;19966;-85
2023/09/10 01:45:07;;;;;;;;;;;;;;;;;;6205881;23;19915;-85
2023/09/10 01:47:36;;;;;;;;;;;;;;;;;;6206993;23;19923;-85
2023/09/10 01:50:02;;;;;;;;;;;;;;;;;;6206583;23;19926;-85
2023/09/10 01:52:28;;;;;;;;;;;;;;;;;;6205439;23;19995;-85
2023/09/10 01:54:54;;;;;;;;;;;;;;;;;;6206341;23;20003;-85
2023/09/10 01:57:23;;;;;;;;;;;;;;;;;;6205184;23;19949;-85
2023/09/10 01:59:51;;;;;;;;;;;;;;;;;;6206929;23;19919;-85
2023/09/10 02:02:18;;;;;;;;;;;;;;;;;;6205006;23;19957;-85
2023/09/10 02:04:44;;;;;;;;;;;;;;;;;;6205386;23;20309;-85
2023/09/10 02:07:10;;;;;;;;;;;;;;;;;;6242470;22;19968;-85
2023/09/10 02:09:38;;;;;;;;;;;;;;;;;;6243492;22;19955;-85
2023/09/10 02:15:15;;;;;;;;;;;;;;;;;;6281843;22;20323;-85
2023/09/10 02:17:41;;;;;;;;;;;;;;;;;;6244887;22;19919;-86
2023/09/10 02:20:09;;;;;;;;;;;;;;;;;;6244575;22;19919;-85
2023/09/10 02:22:38;;;;;;;;;;;;;;;;;;6242726;22;20383;-85
2023/09/10 02:25:07;;;;;;;;;;;;;;;;;;6270935;22;19919;-85
2023/09/10 02:27:35;;;;;;;;;;;;;;;;;;6268827;22;20383;-85
2023/09/10 02:32:47;;;;;;;;;;;;;;;;;;6269898;22;19919;-85
2023/09/10 02:35:13;;;;;;;;;;;;;;;;;;6243757;22;19984;-85
2023/09/10 02:37:45;;;;;;;;;;;;;;;;;;6244004;22;19918;-84
2023/09/10 02:40:13;;;;;;;;;;;;;;;;;;6244745;22;19997;-85
2023/09/10 02:42:42;;;;;;;;;;;;;;;;;;6244063;22;19923;-84
2023/09/10 02:45:37;;;;;;;;;;;;;;;;;;;;;
2023/09/10 02:48:41;;;;;;;;;;;;;;;;;;;;;
2023/09/10 02:51:30;;;;;;;;;;;;;;;;;;;;;
2023/09/10 02:54:15;;;;;;;;;;;;;;;;;;6261345;22;20339;-84
2023/09/10 02:57:13;;;;;;;;;;;;;;;;;;6276333;22;19915;-84
2023/09/10 03:00:04;;;;;;;;;;;;;;;;;;6209312;23;20666;-84
2023/09/10 03:08:35;;;;;;;;;;;;;;;;;;6139804;23;19987;-84
2023/09/10 03:14:33;;;;;;;;;;;;;;;;;;;;;
2023/09/10 03:20:42;;;;;;;;;;;;;;;;;;;;;
2023/09/10 03:26:41;;;;;;;;;;;;;;;;;;6241496;23;19915;-84
2023/09/10 03:32:17;;;;;;;;;;;;;;;;;;6292788;22;20012;-85
2023/09/10 03:35:08;;;;;;;;;;;;;;;;;;;;;
2023/09/10 03:41:01;;;;;;;;;;;;;;;;;;6196919;23;20459;-85
2023/09/10 03:43:56;;;;;;;;;;;;;;;;;;6166577;23;20071;-85
2023/09/10 03:46:57;;;;;;;;;;;;;;;;;;6196764;23;19920;-85
2023/09/10 03:50:04;;;;;;;;;;;;;;;;;;6091798;23;20314;-85
2023/09/10 03:56:24;;;;;;;;;;;;;;;;;;;;;
2023/09/10 04:11:16;;;;;;;;;;;;;;;;;;5942158;24;19962;-84
2023/09/10 04:19:39;;;;;;;;;;;;;;;;;;6321455;22;19922;-82
2023/09/10 04:22:28;;;;;;;;;;;;;;;;;;6320066;22;19918;-82
2023/09/10 04:24:59;;;;;;;;;;;;;;;;;;6277362;22;20328;-82
2023/09/10 04:27:25;;;;;;;;;;;;;;;;;;6273496;22;20360;-82
2023/09/10 04:29:53;;;;;;;;;;;;;;;;;;6287932;22;19954;-82
2023/09/10 04:32:19;;;;;;;;;;;;;;;;;;6241664;22;20090;-81
2023/09/10 04:34:45;;;;;;;;;;;;;;;;;;6243238;22;20631;-82
2023/09/10 04:37:11;;;;;;;;;;;;;;;;;;6242072;22;19919;-82
2023/09/10 04:39:37;;;;;;;;;;;;;;;;;;6241930;22;19930;-82
2023/09/10 04:42:03;;;;;;;;;;;;;;;;;;6241861;22;19919;-82
2023/09/10 04:44:29;;;;;;;;;;;;;;;;;;6243846;22;20354;-82
2023/09/10 04:46:58;;;;;;;;;;;;;;;;;;6243715;22;19985;-82
2023/09/10 04:49:27;;;;;;;;;;;;;;;;;;6270523;22;20320;-82
2023/09/10 04:51:53;;;;;;;;;;;;;;;;;;6243189;22;19923;-81
2023/09/10 04:54:19;;;;;;;;;;;;;;;;;;6243823;22;19944;-82
2023/09/10 04:56:47;;;;;;;;;;;;;;;;;;6243735;22;19968;-82
2023/09/10 04:59:13;;;;;;;;;;;;;;;;;;6268676;22;20022;-82
2023/09/10 05:01:39;;;;;;;;;;;;;;;;;;6243006;22;19973;-82
2023/09/10 05:04:05;;;;;;;;;;;;;;;;;;6242167;22;20528;-82
2023/09/10 05:06:31;;;;;;;;;;;;;;;;;;6243799;22;19919;-82
2023/09/10 05:08:57;;;;;;;;;;;;;;;;;;6243851;22;19923;-82
2023/09/10 05:11:23;;;;;;;;;;;;;;;;;;6240588;22;20307;-82
2023/09/10 05:13:49;;;;;;;;;;;;;;;;;;6267773;22;19941;-82
2023/09/10 05:16:15;;;;;;;;;;;;;;;;;;6267665;22;19923;-82
2023/09/10 05:22:18;;;;;;;;;;;;;;;;;;6239989;22;20015;-83
2023/09/10 05:24:56;;;;;;;;;;;;;;;;;;6213459;22;20810;-84
2023/09/10 05:27:22;;;;;;;;;;;;;;;;;;6214374;22;20021;-84
2023/09/10 05:29:51;;;;;;;;;;;;;;;;;;6214006;22;19915;-86
2023/09/10 05:32:19;;;;;;;;;;;;;;;;;;6213529;22;19925;-87
2023/09/10 05:34:51;;;;;;;;;;;;;;;;;;6215182;22;19958;-87
2023/09/10 05:37:22;;;;;;;;;;;;;;;;;;6215703;22;20200;-87
2023/09/10 05:39:51;;;;;;;;;;;;;;;;;;6212116;22;19951;-88
2023/09/10 05:42:21;;;;;;;;;;;;;;;;;;6239083;22;19919;-87
2023/09/10 05:44:47;;;;;;;;;;;;;;;;;;6213253;22;19927;-87
2023/09/10 05:47:19;;;;;;;;;;;;;;;;;;6212450;22;19926;-87
2023/09/10 05:49:45;;;;;;;;;;;;;;;;;;6214592;22;19996;-87
2023/09/10 05:52:14;;;;;;;;;;;;;;;;;;6211954;22;20415;-87
2023/09/10 05:54:43;;;;;;;;;;;;;;;;;;6212061;22;19996;-88
2023/09/10 05:57:35;;;;;;;;;;;;;;;;;;6212213;22;20055;-87
2023/09/10 06:00:24;;;;;;;;;;;;;;;;;;6235017;22;19919;-87
2023/09/10 06:02:57;;;;;;;;;;;;;;;;;;6239138;22;19980;-87
2023/09/10 06:05:33;;;;;;;;;;;;;;;;;;6238968;22;19919;-87
2023/09/10 06:08:03;;;;;;;;;;;;;;;;;;6213936;22;19925;-87
2023/09/10 06:10:42;;;;;;;;;;;;;;;;;;6238758;22;20309;-87
2023/09/10 06:13:19;;;;;;;;;;;;;;;;;;6212491;22;20269;-87
2023/09/10 06:15:47;;;;;;;;;;;;;;;;;;6261582;22;20005;-88
2023/09/10 06:18:22;;;;;;;;;;;;;;;;;;6212957;22;19927;-88
2023/09/10 06:20:51;;;;;;;;;;;;;;;;;;6209250;22;19919;-88
2023/09/10 06:26:12;;;;;;;;;;;;;;;;;;6253906;22;19934;-88
2023/09/10 06:28:38;;;;;;;;;;;;;;;;;;6268625;22;20027;-88
2023/09/10 06:31:12;;;;;;;;;;;;;;;;;;6243469;22;20237;-88
2023/09/10 06:33:55;;;;;;;;;;;;;;;;;;6264731;22;19918;-88
2023/09/10 06:39:38;;;;;;;;;;;;;;;;;;;;;
2023/09/10 06:42:16;;;;;;;;;;;;;;;;;;6174489;23;20234;-89
2023/09/10 06:44:57;;;;;;;;;;;;;;;;;;6242434;23;20419;-88
2023/09/10 06:47:27;;;;;;;;;;;;;;;;;;6207948;23;19948;-88
2023/09/10 06:49:55;;;;;;;;;;;;;;;;;;6206278;23;20418;-88
2023/09/10 06:52:50;;;;;;;;;;;;;;;;;;6203063;23;19919;-89
2023/09/10 06:55:28;;;;;;;;;;;;;;;;;;6200735;23;19923;-88
2023/09/10 06:58:38;;;;;;;;;;;;;;;;;;6232829;23;20356;-91
2023/09/10 07:01:28;;;;;;;;;;;;;;;;;;6143424;23;19928;-92
2023/09/10 07:09:39;;;;;;;;;;;;;;;;;;6323513;22;19929;-82
2023/09/10 07:12:05;;;;;;;;;;;;;;;;;;6315330;22;20337;-81
2023/09/10 07:14:31;;;;;;;;;;;;;;;;;;6296301;22;19980;-81
2023/09/10 07:16:57;;;;;;;;;;;;;;;;;;6292197;22;19915;-81
2023/09/10 07:19:23;;;;;;;;;;;;;;;;;;6293661;22;19946;-81
2023/09/10 07:21:49;;;;;;;;;;;;;;;;;;6295878;22;19919;-81
2023/09/10 07:24:14;;;;;;;;;;;;;;;;;;6295030;22;19927;-82
2023/09/10 07:26:40;;;;;;;;;;;;;;;;;;6266648;22;19918;-82
2023/09/10 07:29:07;;;;;;;;;;;;;;;;;;6295733;22;19919;-90
2023/09/10 07:31:33;;;;;;;;;;;;;;;;;;6265995;22;19954;-89
2023/09/10 07:33:59;;;;;;;;;;;;;;;;;;6293042;22;19918;-91
2023/09/10 07:36:27;;;;;;;;;;;;;;;;;;6261211;22;19923;-89
2023/09/10 07:38:54;;;;;;;;;;;;;;;;;;6293100;22;20319;-89
2023/09/10 07:41:20;;;;;;;;;;;;;;;;;;6296911;22;19973;-88
2023/09/10 07:43:46;;;;;;;;;;;;;;;;;;6293205;22;19922;-89
2023/09/10 07:46:12;;;;;;;;;;;;;;;;;;6264950;22;20491;-89
2023/09/10 07:48:38;;;;;;;;;;;;;;;;;;6292743;22;19919;-90
2023/09/10 07:51:05;;;;;;;;;;;;;;;;;;6268849;22;19918;-89
2023/09/10 07:53:31;;;;;;;;;;;;;;;;;;6295489;22;19922;-90
2023/09/10 07:55:57;;;;;;;;;;;;;;;;;;6293042;22;19923;-89
2023/09/10 07:58:23;;;;;;;;;;;;;;;;;;6265997;22;20255;-90
2023/09/10 08:00:50;;;;;;;;;;;;;;;;;;6293609;22;19926;-90
2023/09/10 08:03:16;;;;;;;;;;;;;;;;;;6293980;22;20524;-90
2023/09/10 08:05:42;;;;;;;;;;;;;;;;;;6294728;22;19923;-90
2023/09/10 08:08:08;;;;;;;;;;;;;;;;;;6267679;22;20255;-90
2023/09/10 08:10:34;;;;;;;;;;;;;;;;;;6294539;22;19918;-90
2023/09/10 08:13:00;;;;;;;;;;;;;;;;;;6268067;22;20097;-90
2023/09/10 08:15:26;;;;;;;;;;;;;;;;;;6292394;22;19930;-89
2023/09/10 08:17:52;;;;;;;;;;;;;;;;;;6294160;22;20260;-90
2023/09/10 08:20:18;;;;;;;;;;;;;;;;;;6294956;22;19969;-91
2023/09/10 08:22:44;;;;;;;;;;;;;;;;;;6269240;22;20216;-89
2023/09/10 08:25:10;;;;;;;;;;;;;;;;;;6264361;22;20014;-90
2023/09/10 08:27:36;;;;;;;;;;;;;;;;;;6293246;22;19919;-89
2023/09/10 08:30:05;;;;;;;;;;;;;;;;;;6269331;22;19994;-90
2023/09/10 08:32:31;;;;;;;;;;;;;;;;;;6294859;22;19916;-89
2023/09/10 08:34:57;;;;;;;;;;;;;;;;;;6291814;22;19922;-89
2023/09/10 08:37:23;;;;;;;;;;;;;;;;;;6290413;22;19930;-90
2023/09/10 08:39:49;;;;;;;;;;;;;;;;;;6269708;22;19919;-90
2023/09/10 08:42:15;;;;;;;;;;;;;;;;;;6295428;22;19947;-90
2023/09/10 08:44:41;;;;;;;;;;;;;;;;;;6266239;22;20367;-90
2023/09/10 08:47:07;;;;;;;;;;;;;;;;;;6267733;22;19919;-89
2023/09/10 08:49:34;;;;;;;;;;;;;;;;;;6293162;22;19968;-90
2023/09/10 08:52:00;;;;;;;;;;;;;;;;;;6265332;22;20055;-87
2023/09/10 08:54:26;;;;;;;;;;;;;;;;;;6265219;22;20513;-87
2023/09/10 08:56:52;;;;;;;;;;;;;;;;;;6292600;22;19919;-88
2023/09/10 08:59:19;;;;;;;;;;;;;;;;;;6264698;22;19919;-88
2023/09/10 09:02:02;;;;;;;;;;;;;;;;;;6264447;22;20331;-87
2023/09/10 09:04:35;;;;;;;;;;;;;;;;;;6243493;22;20248;-87
2023/09/10 09:07:02;;;;;;;;;;;;;;;;;;6240437;22;19962;-87
2023/09/10 09:12:35;;;;;;;;;;;;;;;;;;6246463;22;19956;-86
2023/09/10 09:15:08;;;;;;;;;;;;;;;;;;6245146;22;19926;-86
2023/09/10 09:17:34;;;;;;;;;;;;;;;;;;6244745;22;19989;-85
2023/09/10 09:20:18;;;;;;;;;;;;;;;;;;6241085;22;19957;-87
2023/09/10 09:22:44;;;;;;;;;;;;;;;;;;6240934;22;19919;-86
2023/09/10 09:25:31;;;;;;;;;;;;;;;;;;6243773;22;19922;-88
2023/09/10 09:28:22;;;;;;;;;;;;;;;;;;6178795;22;19920;-86
2023/09/10 09:30:54;;;;;;;;;;;;;;;;;;6239389;22;19918;-88
2023/09/10 09:33:23;;;;;;;;;;;;;;;;;;6242064;22;20567;-86
2023/09/10 09:35:58;;;;;;;;;;;;;;;;;;6268080;22;19930;-87
2023/09/10 09:38:27;;;;;;;;;;;;;;;;;;6238973;22;19941;-87
2023/09/10 09:41:05;;;;;;;;;;;;;;;;;;6240717;22;19925;-92
2023/09/10 09:43:31;;;;;;;;;;;;;;;;;;6242002;22;19929;-87
2023/09/10 09:46:22;;;;;;;;;;;;;;;;;;;;;
2023/09/10 09:49:04;;;;;;;;;;;;;;;;;;6264721;22;19919;-86
2023/09/10 09:54:22;;;;;;;;;;;;;;;;;;6251458;22;19926;-86
2023/09/10 09:56:50;;;;;;;;;;;;;;;;;;6240504;22;19926;-87
2023/09/10 09:59:25;;;;;;;;;;;;;;;;;;6243547;22;19926;-86
2023/09/10 10:01:53;;;;;;;;;;;;;;;;;;6238070;22;20362;-87
2023/09/10 10:04:44;;;;;;;;;;;;;;;;;;;;;
2023/09/10 10:07:12;;;;;;;;;;;;;;;;;;6265959;22;19919;-87
2023/09/10 10:15:28;;;;;;;;;;;;;;;;;;6271579;22;20402;-86
2023/09/10 10:18:02;;;;;;;;;;;;;;;;;;6236398;22;20224;-87
2023/09/10 10:20:34;;;;;;;;;;;;;;;;;;6239468;22;19950;-86
2023/09/10 10:23:05;;;;;;;;;;;;;;;;;;6242604;22;19972;-86
2023/09/10 10:25:44;;;;;;;;;;;;;;;;;;6241788;22;19998;-87
2023/09/10 10:31:09;;;;;;;;;;;;;;;;;;;;;
2023/09/10 10:33:53;;;;;;;;;;;;;;;;;;6287697;22;19919;-88
2023/09/10 10:36:33;;;;;;;;;;;;;;;;;;6241114;22;19929;-88
2023/09/10 10:39:07;;;;;;;;;;;;;;;;;;6260076;22;19993;-88
2023/09/10 10:41:43;;;;;;;;;;;;;;;;;;;;;
2023/09/10 10:50:00;;;;;;;;;;;;;;;;;;6250059;22;19919;-88
2023/09/10 10:52:32;;;;;;;;;;;;;;;;;;6240676;22;19919;-87
2023/09/10 10:55:09;;;;;;;;;;;;;;;;;;6170313;23;20396;-88
2023/09/10 10:58:06;;;;;;;;;;;;;;;;;;6176116;23;20133;-88
2023/09/10 11:03:51;;;;;;;;;;;;;;;;;;6205767;23;20023;-87
2023/09/10 11:06:36;;;;;;;;;;;;;;;;;;6197823;23;19920;-87
2023/09/10 11:18:00;;;;;;;;;;;;;;;;;;6165050;23;19920;-87
2023/09/10 11:20:36;;;;;;;;;;;;;;;;;;6171632;23;20682;-87
2023/09/10 11:23:09;;;;;;;;;;;;;;;;;;6173337;23;19924;-86
2023/09/10 11:25:35;;;;;;;;;;;;;;;;;;6205325;22;20300;-87
2023/09/10 11:31:08;;;;;;;;;;;;;;;;;;6305067;22;19969;-86
2023/09/10 11:33:35;;;;;;;;;;;;;;;;;;6264287;22;19919;-86
2023/09/10 11:36:14;;;;;;;;;;;;;;;;;;6268022;22;19927;-86
2023/09/10 11:38:48;;;;;;;;;;;;;;;;;;6244093;22;19919;-87
2023/09/10 11:41:14;;;;;;;;;;;;;;;;;;6270055;22;19919;-87
2023/09/10 11:43:52;;;;;;;;;;;;;;;;;;6242296;22;19919;-87
2023/09/10 11:49:33;;;;;;;;;;;;;;;;;;6118505;23;19928;-88
2023/09/10 11:52:22;;;;;;;;;;;;;;;;;;6067065;23;19951;-88
2023/09/10 12:04:01;;;;;;;;;;;;;;;;;;6256469;22;20353;-87
2023/09/10 12:07:00;;;;;;;;;;;;;;;;;;6244898;22;19918;-86
2023/09/10 12:09:32;;;;;;;;;;;;;;;;;;6240231;22;19940;-87
2023/09/10 12:12:32;;;;;;;;;;;;;;;;;;;;;
2023/09/10 12:15:44;;;;;;;;;;;;;;;;;;;;;
2023/09/10 12:18:50;;;;;;;;;;;;;;;;;;;;;
2023/09/10 12:22:03;;;;;;;;;;;;;;;;;;6089969;23;20466;-87
2023/09/10 12:36:55;;;;;;;;;;;;;;;;;;6178669;23;20175;-88
2023/09/10 12:40:04;;;;;;;;;;;;;;;;;;6227058;22;20002;-87
2023/09/10 12:48:43;;;;;;;;;;;;;;;;;;;;;
2023/09/10 13:10:19;;;;;;;;;;;;;;;;;;;;;
2023/09/10 15:44:57;;;;;;;;;;;;;;;;;;;;;
2023/09/10 15:51:00;;;;;;;;;;;;;;;;;;6271478;22;19919;-87
2023/09/10 16:03:22;;;;;;;;;;;;;;;;;;6292920;22;19919;-86
2023/09/10 16:27:27;;;;;;;;;;;;;;;;;;;;;
2023/09/10 16:30:14;;;;;;;;;;;;;;;;;;6310300;22;19918;-86
2023/09/10 16:33:10;;;;;;;;;;;;;;;;;;6268171;22;20013;-86
2023/09/10 16:35:49;;;;;;;;;;;;;;;;;;;;;
2023/09/10 16:41:08;;;;;;;;;;;;;;;;;;6227883;23;19970;-86
2023/09/10 16:44:07;;;;;;;;;;;;;;;;;;6228645;23;20344;-87
2023/09/10 16:46:57;;;;;;;;;;;;;;;;;;;;;
2023/09/10 16:49:23;;;;;;;;;;;;;;;;;;6167364;23;19959;-86
2023/09/10 16:57:43;;;;;;;;;;;;;;;;;;6141145;23;19931;-86
2023/09/10 17:00:09;;;;;;;;;;;;;;;;;;6141109;23;20665;-87
2023/09/10 17:06:18;;;;;;;;;;;;;;;;;;;;;
2023/09/10 17:08:59;;;;;;;;;;;;;;;;;;;;;
2023/09/10 17:11:51;;;;;;;;;;;;;;;;;;;;;
2023/09/10 17:17:25;;;;;;;;;;;;;;;;;;6111515;23;19928;-89
2023/09/10 17:20:45;;;;;;;;;;;;;;;;;;;;;
2023/09/10 17:23:27;;;;;;;;;;;;;;;;;;6078760;23;20284;-89
2023/09/10 17:26:32;;;;;;;;;;;;;;;;;;;;;
2023/09/10 17:36:04;;;;;;;;;;;;;;;;;;6001156;23;19937;-87
2023/09/10 17:44:29;;;;;;;;;;;;;;;;;;6048872;23;19925;-86
2023/09/10 17:46:58;;;;;;;;;;;;;;;;;;6108812;23;19940;-86
2023/09/10 17:49:26;;;;;;;;;;;;;;;;;;6108922;23;19999;-86
2023/09/10 17:51:58;;;;;;;;;;;;;;;;;;6136412;23;19920;-86
2023/09/10 17:54:30;;;;;;;;;;;;;;;;;;6167432;23;20184;-85
2023/09/10 17:56:57;;;;;;;;;;;;;;;;;;6210420;22;19996;-86
2023/09/10 17:59:45;;;;;;;;;;;;;;;;;;6268085;22;20037;-86
2023/09/10 18:02:15;;;;;;;;;;;;;;;;;;6264711;22;19922;-86
2023/09/10 18:04:47;;;;;;;;;;;;;;;;;;6239416;22;20336;-86
2023/09/10 18:07:40;;;;;;;;;;;;;;;;;;6290741;22;20368;-86
2023/09/10 18:10:20;;;;;;;;;;;;;;;;;;6241364;22;19957;-86
2023/09/10 18:12:49;;;;;;;;;;;;;;;;;;6233696;22;20389;-85
2023/09/10 18:15:15;;;;;;;;;;;;;;;;;;6237225;22;20040;-85
2023/09/10 18:21:23;;;;;;;;;;;;;;;;;;;;;
2023/09/10 18:24:18;;;;;;;;;;;;;;;;;;6366351;22;19921;-81
2023/09/10 18:26:52;;;;;;;;;;;;;;;;;;6290144;22;19918;-81
2023/09/10 18:29:36;;;;;;;;;;;;;;;;;;6233167;22;19952;-81
2023/09/10 18:32:34;;;;;;;;;;;;;;;;;;;;;
2023/09/10 18:35:13;;;;;;;;;;;;;;;;;;6343360;22;19925;-81
2023/09/10 18:37:53;;;;;;;;;;;;;;;;;;6302424;22;20245;-83
2023/09/10 18:43:18;;;;;;;;;;;;;;;;;;6321567;22;19925;-82
2023/09/10 18:45:54;;;;;;;;;;;;;;;;;;6294858;22;19918;-83
2023/09/10 18:48:23;;;;;;;;;;;;;;;;;;6287099;22;19946;-83
2023/09/10 18:50:55;;;;;;;;;;;;;;;;;;6297407;22;19922;-83
2023/09/10 18:53:49;;;;;;;;;;;;;;;;;;6313418;22;19966;-83
2023/09/10 18:56:22;;;;;;;;;;;;;;;;;;6321446;22;19914;-83
2023/09/10 19:04:38;;;;;;;;;;;;;;;;;;6324282;22;20250;-83
2023/09/10 19:07:15;;;;;;;;;;;;;;;;;;;;;
2023/09/10 19:09:46;;;;;;;;;;;;;;;;;;6325252;22;19918;-83
2023/09/10 19:15:51;;;;;;;;;;;;;;;;;;;;;
2023/09/10 19:18:42;;;;;;;;;;;;;;;;;;;;;
2023/09/10 19:21:14;;;;;;;;;;;;;;;;;;6325081;22;20365;-83
2023/09/10 19:23:59;;;;;;;;;;;;;;;;;;6300763;22;20468;-83
2023/09/10 19:26:31;;;;;;;;;;;;;;;;;;6297981;22;19959;-83
2023/09/10 19:28:57;;;;;;;;;;;;;;;;;;6299423;22;20036;-83
2023/09/10 19:31:43;;;;;;;;;;;;;;;;;;6299152;22;19918;-83
2023/09/10 19:34:10;;;;;;;;;;;;;;;;;;6302694;22;19953;-83
2023/09/10 19:36:36;;;;;;;;;;;;;;;;;;6302538;22;19940;-84
2023/09/10 19:42:08;;;;;;;;;;;;;;;;;;;;;
2023/09/10 19:44:40;;;;;;;;;;;;;;;;;;6323742;22;19919;-83
2023/09/10 19:47:09;;;;;;;;;;;;;;;;;;6297197;22;19922;-83
2023/09/10 19:49:38;;;;;;;;;;;;;;;;;;6326506;22;19919;-83
2023/09/10 19:54:55;;;;;;;;;;;;;;;;;;6326408;22;19962;-83
2023/09/10 19:57:22;;;;;;;;;;;;;;;;;;6326065;22;19967;-83
2023/09/10 19:59:57;;;;;;;;;;;;;;;;;;6302870;22;20728;-83
2023/09/10 20:02:23;;;;;;;;;;;;;;;;;;6300229;22;20456;-82
2023/09/10 20:04:52;;;;;;;;;;;;;;;;;;6296278;22;19923;-83
2023/09/10 20:07:23;;;;;;;;;;;;;;;;;;6302101;22;20352;-83
2023/09/10 20:09:49;;;;;;;;;;;;;;;;;;6304075;22;19918;-83
2023/09/10 20:12:18;;;;;;;;;;;;;;;;;;6302834;22;20296;-83
2023/09/10 20:14:47;;;;;;;;;;;;;;;;;;6302353;22;20313;-82
2023/09/10 20:20:08;;;;;;;;;;;;;;;;;;6269185;22;19925;-83
2023/09/10 20:22:44;;;;;;;;;;;;;;;;;;6300304;22;20320;-84
2023/09/10 20:25:29;;;;;;;;;;;;;;;;;;;;;
2023/09/10 20:33:50;;;;;;;;;;;;;;;;;;6325566;22;20251;-84
2023/09/10 20:46:23;;;;;;;;;;;;;;;;;;6207086;23;19918;-85
2023/09/10 20:55:29;;;;;;;;;;;;;;;;;;6149524;23;20765;-84
2023/09/10 21:21:15;;;;;;;;;;;;;;;;;;;;;
2023/09/10 21:24:17;;;;;;;;;;;;;;;;;;6337452;22;19923;-85
2023/09/10 21:29:54;;;;;;;;;;;;;;;;;;;;;
2023/09/10 21:38:47;;;;;;;;;;;;;;;;;;6207684;23;20383;-85
2023/09/10 21:49:52;;;;;;;;;;;;;;;;;;6326557;22;19950;-84
2023/09/10 21:52:35;;;;;;;;;;;;;;;;;;6295860;22;20360;-84
2023/09/10 21:55:04;;;;;;;;;;;;;;;;;;6293974;22;19985;-84
2023/09/10 22:00:59;;;;;;;;;;;;;;;;;;6209757;23;19974;-85
2023/09/10 22:03:45;;;;;;;;;;;;;;;;;;;;;
2023/09/10 22:06:40;;;;;;;;;;;;;;;;;;6200631;23;19958;-85
2023/09/10 22:09:12;;;;;;;;;;;;;;;;;;6176884;23;19945;-85
2023/09/10 22:11:54;;;;;;;;;;;;;;;;;;6178180;23;19916;-85
2023/09/10 22:14:29;;;;;;;;;;;;;;;;;;6200089;23;19916;-85
2023/09/10 22:17:02;;;;;;;;;;;;;;;;;;6174956;23;19924;-85
2023/09/10 22:19:42;;;;;;;;;;;;;;;;;;6175114;23;20024;-85
2023/09/10 22:22:11;;;;;;;;;;;;;;;;;;6176315;23;19938;-85
2023/09/10 22:24:46;;;;;;;;;;;;;;;;;;6244829;22;20197;-84
2023/09/10 22:27:15;;;;;;;;;;;;;;;;;;6293220;22;19919;-85
2023/09/10 22:29:41;;;;;;;;;;;;;;;;;;6266963;22;20001;-84
2023/09/10 22:32:12;;;;;;;;;;;;;;;;;;6260602;22;20002;-85
2023/09/10 22:34:39;;;;;;;;;;;;;;;;;;6292614;22;19993;-85
2023/09/10 22:37:27;;;;;;;;;;;;;;;;;;6292442;22;19926;-85
2023/09/10 22:39:57;;;;;;;;;;;;;;;;;;6269463;22;19923;-85
2023/09/10 22:42:24;;;;;;;;;;;;;;;;;;6269442;22;19975;-85
2023/09/10 22:44:50;;;;;;;;;;;;;;;;;;6296569;22;19918;-84
2023/09/10 22:47:16;;;;;;;;;;;;;;;;;;6269059;22;19926;-85
2023/09/10 22:49:49;;;;;;;;;;;;;;;;;;6270345;22;19922;-85
2023/09/10 22:52:22;;;;;;;;;;;;;;;;;;6267282;22;20265;-85
2023/09/10 22:54:48;;;;;;;;;;;;;;;;;;6266382;22;20367;-85
2023/09/10 22:57:14;;;;;;;;;;;;;;;;;;6267446;22;19919;-85
2023/09/10 22:59:45;;;;;;;;;;;;;;;;;;6295856;22;19974;-85
2023/09/10 23:07:53;;;;;;;;;;;;;;;;;;6324244;22;20033;-85
2023/09/10 23:10:28;;;;;;;;;;;;;;;;;;6299490;22;19918;-85
2023/09/10 23:12:56;;;;;;;;;;;;;;;;;;6271578;22;19918;-85
2023/09/10 23:15:24;;;;;;;;;;;;;;;;;;6297698;22;19930;-85
2023/09/10 23:18:00;;;;;;;;;;;;;;;;;;6274198;22;19918;-85
2023/09/10 23:20:30;;;;;;;;;;;;;;;;;;6290186;22;19918;-85
2023/09/10 23:29:10;;;;;;;;;;;;;;;;;;6313276;22;20353;-82
2023/09/10 23:31:36;;;;;;;;;;;;;;;;;;6236843;22;19926;-82
2023/09/10 23:34:03;;;;;;;;;;;;;;;;;;6236503;22;19919;-82
2023/09/10 23:36:29;;;;;;;;;;;;;;;;;;6234897;22;19923;-82
2023/09/10 23:38:55;;;;;;;;;;;;;;;;;;6236651;22;19930;-82
2023/09/10 23:52:22;;;;;;;;;;;;;;;;;;6324358;22;20228;-84
